Time;durP1;ratioP1;P1;durP2;ratioP2;P2;SDS_P1;SDS_P2;PMS_P1;PMS_P2;Temp;Humidity;BMP_temperature;BMP_pressure;BME280_temperature;BME280_humidity;BME280_pressure;Samples;Min_cycle;Max_cycle;Signal;HPM_P1;HPM_P2
2023/09/10 00:01:05;;;;;;;;;;;;;;;19.21;66.73;98166.81;5023241;28;19929;-59
2023/09/10 00:03:33;;;;;;;;;;;;;;;19.19;66.95;98164.44;5029624;28;20399;-59
2023/09/10 00:06:01;;;;;;;;;;;;;;;19.24;66.78;98161.41;5029687;28;19925;-60
2023/09/10 00:08:29;;;;;;;;;;;;;;;19.26;66.50;98163.78;5027932;28;19933;-60
2023/09/10 00:10:57;;;;;;;;;;;;;;;19.25;66.32;98162.19;5026969;28;19935;-60
2023/09/10 00:13:25;;;;;;;;;;;;;;;19.26;66.29;98170.09;5021703;28;20402;-60
2023/09/10 00:15:52;;;;;;;;;;;;;;;19.29;66.24;98174.88;5023292;28;20629;-60
2023/09/10 00:18:21;;;;;;;;;;;;;;;19.28;66.09;98178.81;5021390;28;19944;-60
2023/09/10 00:20:51;;;;;;;;;;;;;;;19.32;65.94;98178.84;5028964;28;19925;-60
2023/09/10 00:23:19;;;;;;;;;;;;;;;19.28;66.02;98180.72;5028961;28;20417;-63
2023/09/10 00:25:47;;;;;;;;;;;;;;;19.26;66.15;98175.59;5038430;28;19933;-60
2023/09/10 00:28:15;;;;;;;;;;;;;;;19.22;66.32;98177.47;5032513;28;20337;-60
2023/09/10 00:30:43;;;;;;;;;;;;;;;19.17;66.37;98174.22;5015343;28;19925;-60
2023/09/10 00:33:11;;;;;;;;;;;;;;;19.20;66.22;98177.03;5027534;28;19926;-60
2023/09/10 00:35:40;;;;;;;;;;;;;;;19.21;66.29;98173.13;5033057;28;19929;-60
2023/09/10 00:38:07;;;;;;;;;;;;;;;19.20;66.27;98171.53;5031229;28;19925;-59
2023/09/10 00:40:35;;;;;;;;;;;;;;;19.23;66.05;98175.50;5031031;28;20367;-60
2023/09/10 00:43:03;;;;;;;;;;;;;;;19.23;66.08;98176.34;5011517;28;20378;-60
2023/09/10 00:45:31;;;;;;;;;;;;;;;19.19;66.22;98172.69;5031499;28;19925;-60
2023/09/10 00:47:59;;;;;;;;;;;;;;;19.19;66.30;98169.94;5029649;28;19925;-60
2023/09/10 00:50:27;;;;;;;;;;;;;;;19.16;66.41;98164.34;5033353;28;19975;-59
2023/09/10 00:52:56;;;;;;;;;;;;;;;19.10;66.42;98161.88;5008419;28;20405;-60
2023/09/10 00:55:24;;;;;;;;;;;;;;;19.09;66.51;98162.25;5026151;28;20421;-59
2023/09/10 00:57:52;;;;;;;;;;;;;;;19.03;66.78;98167.25;5007366;28;19930;-60
2023/09/10 01:00:20;;;;;;;;;;;;;;;18.98;66.89;98161.22;5030955;28;19936;-60
2023/09/10 01:02:47;;;;;;;;;;;;;;;18.98;66.79;98164.78;5030708;28;19987;-60
2023/09/10 01:05:16;;;;;;;;;;;;;;;18.96;66.94;98169.03;5024519;28;20370;-59
2023/09/10 01:07:44;;;;;;;;;;;;;;;19.00;66.82;98167.16;5008664;28;20337;-60
2023/09/10 01:10:13;;;;;;;;;;;;;;;18.99;66.84;98165.56;5031729;28;20106;-60
2023/09/10 01:12:44;;;;;;;;;;;;;;;18.99;66.68;98177.38;5029074;28;20306;-60
2023/09/10 01:15:13;;;;;;;;;;;;;;;19.00;66.71;98173.47;5030112;28;19925;-59
2023/09/10 01:17:43;;;;;;;;;;;;;;;18.98;66.73;98167.53;5011143;28;20370;-59
2023/09/10 01:20:15;;;;;;;;;;;;;;;18.92;66.94;98174.50;5031002;28;20084;-60
2023/09/10 01:22:45;;;;;;;;;;;;;;;18.89;67.29;98177.94;5005936;28;20388;-60
2023/09/10 01:25:15;;;;;;;;;;;;;;;18.86;67.22;98177.88;5010809;28;19929;-59
2023/09/10 01:27:43;;;;;;;;;;;;;;;18.84;67.52;98179.03;5027398;28;19925;-60
2023/09/10 01:30:11;;;;;;;;;;;;;;;18.86;67.34;98175.13;5029860;28;19986;-60
2023/09/10 01:32:42;;;;;;;;;;;;;;;18.85;67.44;98177.06;5027509;28;21113;-60
2023/09/10 01:35:11;;;;;;;;;;;;;;;18.81;67.62;98168.75;5003422;28;20016;-60
2023/09/10 01:37:41;;;;;;;;;;;;;;;18.80;67.47;98169.09;5010017;28;20007;-59
2023/09/10 01:40:10;;;;;;;;;;;;;;;18.77;67.35;98170.63;5007420;28;20411;-60
2023/09/10 01:42:40;;;;;;;;;;;;;;;18.74;67.44;98163.06;5030514;28;19925;-59
2023/09/10 01:45:08;;;;;;;;;;;;;;;18.77;67.49;98164.31;5025754;28;20289;-59
2023/09/10 01:47:36;;;;;;;;;;;;;;;18.71;67.73;98171.25;5026773;28;20301;-60
2023/09/10 01:50:05;;;;;;;;;;;;;;;18.67;67.92;98168.38;5027643;28;19925;-59
2023/09/10 01:52:32;;;;;;;;;;;;;;;18.68;67.59;98167.25;5031927;28;20485;-59
2023/09/10 01:55:00;;;;;;;;;;;;;;;18.69;67.72;98168.84;5020179;28;19929;-59
2023/09/10 01:57:28;;;;;;;;;;;;;;;18.66;67.62;98175.03;5028246;28;20337;-60
2023/09/10 01:59:57;;;;;;;;;;;;;;;18.70;67.45;98164.97;5010140;28;19929;-59
2023/09/10 02:02:25;;;;;;;;;;;;;;;18.71;67.44;98172.06;5010805;28;20022;-59
2023/09/10 02:04:54;;;;;;;;;;;;;;;18.64;67.88;98166.34;5027053;28;19929;-60
2023/09/10 02:07:21;;;;;;;;;;;;;;;18.63;67.78;98174.94;5026485;28;19929;-59
2023/09/10 02:09:53;;;;;;;;;;;;;;;18.62;67.92;98174.16;5032389;28;19925;-60
2023/09/10 02:12:21;;;;;;;;;;;;;;;18.62;67.74;98167.88;5028710;28;19974;-59
2023/09/10 02:14:48;;;;;;;;;;;;;;;18.61;67.71;98175.31;5020278;28;20383;-59
2023/09/10 02:17:18;;;;;;;;;;;;;;;18.56;67.81;98181.09;5029573;28;19933;-60
2023/09/10 02:19:46;;;;;;;;;;;;;;;18.61;67.66;98172.56;5029782;28;19925;-60
2023/09/10 02:22:14;;;;;;;;;;;;;;;18.58;67.66;98179.56;5030563;28;20011;-60
2023/09/10 02:24:42;;;;;;;;;;;;;;;18.53;67.91;98179.03;5030742;28;20255;-60
2023/09/10 02:27:10;;;;;;;;;;;;;;;18.47;68.07;98180.47;5032663;28;20329;-60
2023/09/10 02:29:38;;;;;;;;;;;;;;;18.48;68.04;98185.66;5025001;28;19944;-60
2023/09/10 02:32:06;;;;;;;;;;;;;;;18.46;68.49;98179.69;5022053;28;19925;-60
2023/09/10 02:34:35;;;;;;;;;;;;;;;18.39;68.28;98178.72;5022214;28;19971;-60
2023/09/10 02:37:03;;;;;;;;;;;;;;;18.36;68.53;98184.94;5010458;28;19933;-59
2023/09/10 02:39:31;;;;;;;;;;;;;;;18.33;68.61;98192.75;5006691;28;19925;-60
2023/09/10 02:41:59;;;;;;;;;;;;;;;18.35;68.66;98191.59;5024717;28;20444;-60
2023/09/10 02:44:27;;;;;;;;;;;;;;;18.37;68.49;98172.75;5007830;28;19925;-60
2023/09/10 02:46:58;;;;;;;;;;;;;;;18.35;68.39;98183.34;5005369;28;19925;-60
2023/09/10 02:49:25;;;;;;;;;;;;;;;18.35;68.29;98175.88;5028675;28;19925;-60
2023/09/10 02:51:55;;;;;;;;;;;;;;;18.36;68.29;98179.44;5028672;28;19979;-59
2023/09/10 02:54:23;;;;;;;;;;;;;;;18.35;68.29;98186.09;5012722;28;19953;-60
2023/09/10 02:56:54;;;;;;;;;;;;;;;18.31;68.24;98175.00;5027184;28;19928;-59
2023/09/10 02:59:23;;;;;;;;;;;;;;;18.32;68.00;98180.16;5001191;28;19925;-59
2023/09/10 03:01:50;;;;;;;;;;;;;;;18.30;68.10;98185.19;5012074;28;19925;-60
2023/09/10 03:04:18;;;;;;;;;;;;;;;18.28;68.20;98181.22;5024729;28;19933;-59
2023/09/10 03:06:47;;;;;;;;;;;;;;;18.32;68.22;98182.91;5028769;28;20560;-60
2023/09/10 03:09:19;;;;;;;;;;;;;;;18.31;68.17;98186.78;5009204;28;19935;-60
2023/09/10 03:11:47;;;;;;;;;;;;;;;18.28;68.16;98182.00;5008304;28;19930;-59
2023/09/10 03:14:16;;;;;;;;;;;;;;;18.27;68.06;98177.66;5005090;28;19937;-60
2023/09/10 03:16:45;;;;;;;;;;;;;;;18.23;68.32;98176.78;4997777;28;19965;-59
2023/09/10 03:19:13;;;;;;;;;;;;;;;18.20;68.26;98171.97;5003700;28;19925;-60
2023/09/10 03:21:41;;;;;;;;;;;;;;;18.21;68.48;98175.53;5004290;28;20363;-60
2023/09/10 03:24:08;;;;;;;;;;;;;;;18.17;68.45;98177.41;5005787;28;20467;-60
2023/09/10 03:26:38;;;;;;;;;;;;;;;18.13;68.60;98173.75;5009266;28;19975;-59
2023/09/10 03:29:06;;;;;;;;;;;;;;;18.11;68.56;98176.03;5010765;28;19925;-60
2023/09/10 03:31:34;;;;;;;;;;;;;;;18.09;68.54;98173.66;5004728;28;20020;-59
2023/09/10 03:34:02;;;;;;;;;;;;;;;18.11;68.58;98176.03;5007927;28;19931;-59
2023/09/10 03:36:30;;;;;;;;;;;;;;;18.10;68.78;98169.75;5007987;28;20383;-60
2023/09/10 03:38:58;;;;;;;;;;;;;;;18.10;68.69;98166.22;5008808;28;19995;-60
2023/09/10 03:41:25;;;;;;;;;;;;;;;18.06;68.74;98172.44;5009671;28;20371;-59
2023/09/10 03:43:55;;;;;;;;;;;;;;;18.02;68.84;98173.50;5005443;28;19972;-60
2023/09/10 03:46:26;;;;;;;;;;;;;;;18.02;68.96;98174.28;5001242;28;19925;-60
2023/09/10 03:48:54;;;;;;;;;;;;;;;18.01;68.88;98166.41;5002968;28;19949;-60
2023/09/10 03:51:22;;;;;;;;;;;;;;;17.98;68.96;98164.34;5004563;28;19925;-60
2023/09/10 03:53:50;;;;;;;;;;;;;;;17.94;69.07;98166.19;5004512;28;19925;-60
2023/09/10 03:56:17;;;;;;;;;;;;;;;17.95;68.93;98168.63;5005489;28;20294;-60
2023/09/10 03:58:45;;;;;;;;;;;;;;;17.92;68.90;98168.50;4999153;28;19933;-60
2023/09/10 04:01:14;;;;;;;;;;;;;;;17.94;68.84;98166.19;5006365;28;20376;-60
2023/09/10 04:03:42;;;;;;;;;;;;;;;17.88;68.84;98164.88;5019007;28;19980;-59
2023/09/10 04:06:10;;;;;;;;;;;;;;;17.92;68.98;98168.50;5008801;28;19930;-59
2023/09/10 04:08:38;;;;;;;;;;;;;;;17.89;68.92;98167.25;5016653;28;19929;-59
2023/09/10 04:11:08;;;;;;;;;;;;;;;17.86;69.04;98164.44;5027621;28;20016;-59
2023/09/10 04:13:35;;;;;;;;;;;;;;;17.83;69.07;98165.13;5025704;28;19925;-60
2023/09/10 04:16:03;;;;;;;;;;;;;;;17.82;69.15;98167.06;5023627;28;19933;-60
2023/09/10 04:18:34;;;;;;;;;;;;;;;17.84;69.12;98174.97;5022657;28;20331;-59
2023/09/10 04:21:03;;;;;;;;;;;;;;;17.80;69.15;98169.38;5021654;28;20394;-59
2023/09/10 04:23:31;;;;;;;;;;;;;;;17.84;69.02;98167.50;5014867;28;19938;-60
2023/09/10 04:25:58;;;;;;;;;;;;;;;17.80;68.99;98167.44;5006616;28;19925;-59
2023/09/10 04:28:26;;;;;;;;;;;;;;;17.83;68.96;98176.91;5026038;28;19932;-59
2023/09/10 04:30:54;;;;;;;;;;;;;;;17.83;68.83;98173.38;5010867;28;19926;-59
2023/09/10 04:33:22;;;;;;;;;;;;;;;17.75;68.99;98181.44;5026628;28;19932;-59
2023/09/10 04:35:53;;;;;;;;;;;;;;;17.80;68.84;98172.94;5029033;28;19925;-59
2023/09/10 04:38:21;;;;;;;;;;;;;;;17.83;68.83;98178.88;5025078;28;19929;-59
2023/09/10 04:40:49;;;;;;;;;;;;;;;17.77;68.86;98179.13;5010355;28;20295;-59
2023/09/10 04:43:17;;;;;;;;;;;;;;;17.64;68.95;98169.34;5025309;28;19929;-60
2023/09/10 04:45:45;;;;;;;;;;;;;;;17.69;69.16;98190.25;5022063;28;19925;-59
2023/09/10 04:48:13;;;;;;;;;;;;;;;17.69;69.25;98193.81;5006637;28;19979;-60
2023/09/10 04:50:41;;;;;;;;;;;;;;;17.68;69.17;98197.69;5023542;28;19932;-59
2023/09/10 04:53:11;;;;;;;;;;;;;;;17.72;69.08;98204.09;5011850;28;19926;-60
2023/09/10 04:55:38;;;;;;;;;;;;;;;17.68;69.31;98203.19;5018025;28;19925;-59
2023/09/10 04:58:06;;;;;;;;;;;;;;;17.64;69.46;98207.78;5028072;28;20004;-59
2023/09/10 05:00:39;;;;;;;;;;;;;;;17.67;69.23;98212.56;5022834;28;19925;-60
2023/09/10 05:03:07;;;;;;;;;;;;;;;17.64;69.37;98213.28;5016780;28;19925;-60
2023/09/10 05:05:35;;;;;;;;;;;;;;;17.64;69.51;98221.53;5009260;28;20016;-59
2023/09/10 05:08:03;;;;;;;;;;;;;;;17.63;69.62;98219.13;5008728;28;20382;-59
2023/09/10 05:10:32;;;;;;;;;;;;;;;17.64;69.62;98224.28;4995739;28;20415;-60
2023/09/10 05:13:00;;;;;;;;;;;;;;;17.63;69.57;98233.69;5022158;28;19930;-59
2023/09/10 05:15:28;;;;;;;;;;;;;;;17.65;69.60;98236.06;4998940;28;19929;-60
2023/09/10 05:17:55;;;;;;;;;;;;;;;17.69;69.52;98237.78;5005210;28;19925;-60
2023/09/10 05:20:22;;;;;;;;;;;;;;;17.70;69.44;98231.13;5006396;28;19937;-60
2023/09/10 05:22:50;;;;;;;;;;;;;;;17.71;69.37;98240.16;5008029;28;19957;-59
2023/09/10 05:25:18;;;;;;;;;;;;;;;17.67;69.31;98236.50;5005568;28;19929;-59
2023/09/10 05:27:48;;;;;;;;;;;;;;;17.60;70.05;98234.38;5008242;28;19926;-59
2023/09/10 05:30:16;;;;;;;;;;;;;;;17.60;70.00;98241.81;5008635;28;19977;-60
2023/09/10 05:32:44;;;;;;;;;;;;;;;17.50;70.40;98235.66;5004832;28;19929;-59
2023/09/10 05:35:12;;;;;;;;;;;;;;;17.46;70.60;98232.00;5006077;28;19929;-59
2023/09/10 05:37:40;;;;;;;;;;;;;;;17.46;70.89;98233.94;5005760;28;19929;-59
2023/09/10 05:40:08;;;;;;;;;;;;;;;17.39;70.89;98234.56;5008664;28;19983;-60
2023/09/10 05:42:36;;;;;;;;;;;;;;;17.37;71.24;98236.06;5006683;28;20407;-60
2023/09/10 05:45:07;;;;;;;;;;;;;;;17.37;71.30;98233.31;5008493;28;20317;-60
2023/09/10 05:47:34;;;;;;;;;;;;;;;17.40;71.15;98236.16;5010117;28;19984;-59
2023/09/10 05:50:02;;;;;;;;;;;;;;;17.44;71.11;98233.50;5001523;28;20387;-59
2023/09/10 05:52:30;;;;;;;;;;;;;;;17.43;70.99;98234.66;5009245;28;19932;-59
2023/09/10 05:54:58;;;;;;;;;;;;;;;17.40;71.38;98235.34;5017848;28;20347;-59
2023/09/10 05:57:26;;;;;;;;;;;;;;;17.35;71.68;98241.88;5001902;28;19926;-60
2023/09/10 05:59:54;;;;;;;;;;;;;;;17.37;71.77;98247.03;5019038;28;19975;-59
2023/09/10 06:02:23;;;;;;;;;;;;;;;17.46;71.74;98240.25;5009058;28;19933;-59
2023/09/10 06:04:51;;;;;;;;;;;;;;;17.57;71.38;98240.53;5006698;28;19933;-59
2023/09/10 06:07:19;;;;;;;;;;;;;;;17.60;71.32;98236.31;5006158;28;19925;-60
2023/09/10 06:09:47;;;;;;;;;;;;;;;17.64;71.31;98240.75;5006859;28;19925;-60
2023/09/10 06:12:14;;;;;;;;;;;;;;;17.64;71.27;98240.75;5005070;28;19934;-59
2023/09/10 06:14:42;;;;;;;;;;;;;;;17.68;71.34;98232.59;5005800;28;19933;-60
2023/09/10 06:17:10;;;;;;;;;;;;;;;17.73;71.24;98238.69;5008597;28;19931;-59
2023/09/10 06:19:39;;;;;;;;;;;;;;;17.80;71.19;98238.88;5007427;28;19925;-60
2023/09/10 06:22:07;;;;;;;;;;;;;;;17.86;71.27;98235.88;5001421;28;19929;-60
2023/09/10 06:24:35;;;;;;;;;;;;;;;17.92;70.86;98239.97;5007753;28;19992;-60
2023/09/10 06:27:03;;;;;;;;;;;;;;;17.90;71.15;98240.34;5007673;28;20015;-60
2023/09/10 06:29:31;;;;;;;;;;;;;;;17.94;71.04;98243.97;5007122;28;19926;-61
2023/09/10 06:31:58;;;;;;;;;;;;;;;17.99;71.01;98240.16;5007221;28;19930;-59
2023/09/10 06:34:26;;;;;;;;;;;;;;;18.05;70.89;98245.03;5004433;28;20445;-60
2023/09/10 06:36:55;;;;;;;;;;;;;;;18.11;70.85;98242.03;5004185;28;19956;-59
2023/09/10 06:39:23;;;;;;;;;;;;;;;18.14;70.65;98239.38;5001437;28;20000;-59
2023/09/10 06:41:52;;;;;;;;;;;;;;;18.17;70.87;98233.19;5007342;28;19929;-59
2023/09/10 06:44:20;;;;;;;;;;;;;;;18.23;70.98;98244.72;5006646;28;19926;-60
2023/09/10 06:46:48;;;;;;;;;;;;;;;18.22;70.77;98241.19;5006676;28;20414;-60
2023/09/10 06:49:15;;;;;;;;;;;;;;;18.19;70.65;98249.34;5007067;28;19937;-60
2023/09/10 06:51:43;;;;;;;;;;;;;;;18.25;70.80;98254.22;5002314;28;20384;-59
2023/09/10 06:54:12;;;;;;;;;;;;;;;18.34;70.69;98254.06;5008939;28;20350;-59
2023/09/10 06:56:40;;;;;;;;;;;;;;;18.44;70.63;98249.97;4999733;28;20283;-59
2023/09/10 06:59:08;;;;;;;;;;;;;;;18.50;70.22;98248.56;5002830;28;19934;-61
2023/09/10 07:01:37;;;;;;;;;;;;;;;18.53;69.97;98250.59;4998170;28;19933;-59
2023/09/10 07:04:15;;;;;;;;;;;;;;;18.60;70.10;98250.78;5001811;28;19930;-59
2023/09/10 07:06:43;;;;;;;;;;;;;;;18.67;70.04;98259.19;4999826;28;19957;-60
2023/09/10 07:09:13;;;;;;;;;;;;;;;18.77;69.82;98255.94;5000844;28;19947;-60
2023/09/10 07:11:40;;;;;;;;;;;;;;;18.88;69.62;98255.41;5005112;28;19925;-59
2023/09/10 07:14:08;;;;;;;;;;;;;;;18.91;69.73;98246.41;4995778;28;20353;-59
2023/09/10 07:16:36;;;;;;;;;;;;;;;18.89;69.57;98248.72;5000984;28;19968;-60
2023/09/10 07:19:04;;;;;;;;;;;;;;;18.97;69.95;98256.00;5000560;28;20387;-60
2023/09/10 07:21:31;;;;;;;;;;;;;;;19.05;69.82;98243.97;5007554;28;20343;-60
2023/09/10 07:23:59;;;;;;;;;;;;;;;19.09;69.25;98253.13;5005649;28;19926;-62
2023/09/10 07:26:28;;;;;;;;;;;;;;;19.14;68.78;98257.56;4999842;28;19929;-60
2023/09/10 07:28:56;;;;;;;;;;;;;;;19.18;68.63;98251.00;5008442;28;19929;-59
2023/09/10 07:31:24;;;;;;;;;;;;;;;19.25;68.86;98248.38;5009155;28;19951;-60
2023/09/10 07:33:52;;;;;;;;;;;;;;;19.31;69.02;98248.88;5001121;28;19929;-59
2023/09/10 07:36:19;;;;;;;;;;;;;;;19.43;69.21;98245.19;5001328;28;19926;-59
2023/09/10 07:38:48;;;;;;;;;;;;;;;19.48;69.00;98248.47;4999060;28;19925;-59
2023/09/10 07:41:16;;;;;;;;;;;;;;;19.54;68.96;98249.78;5010251;28;19991;-59
2023/09/10 07:43:45;;;;;;;;;;;;;;;19.61;68.92;98246.41;5006860;28;19936;-59
2023/09/10 07:46:13;;;;;;;;;;;;;;;19.66;68.78;98245.34;5003959;28;19925;-60
2023/09/10 07:48:41;;;;;;;;;;;;;;;19.71;68.93;98242.25;5000931;28;19932;-60
2023/09/10 07:51:09;;;;;;;;;;;;;;;19.80;68.93;98240.88;5005562;28;19925;-60
2023/09/10 07:53:37;;;;;;;;;;;;;;;19.85;68.64;98248.84;5005275;28;20548;-59
2023/09/10 07:56:05;;;;;;;;;;;;;;;19.94;68.46;98248.63;5022782;28;19975;-59
2023/09/10 07:58:33;;;;;;;;;;;;;;;20.01;68.37;98247.97;5007999;28;19926;-60
2023/09/10 08:01:02;;;;;;;;;;;;;;;20.11;68.32;98244.63;5000406;28;19929;-59
2023/09/10 08:03:30;;;;;;;;;;;;;;;20.20;68.35;98252.66;5006237;28;19930;-59
2023/09/10 08:05:58;;;;;;;;;;;;;;;20.27;68.29;98256.34;5010486;28;20035;-60
2023/09/10 08:08:26;;;;;;;;;;;;;;;20.34;68.07;98250.94;5001250;28;19929;-59
2023/09/10 08:10:55;;;;;;;;;;;;;;;20.38;67.86;98256.53;5002348;28;20015;-59
2023/09/10 08:13:23;;;;;;;;;;;;;;;20.45;67.47;98251.13;4998414;28;19930;-59
2023/09/10 08:15:51;;;;;;;;;;;;;;;20.52;67.20;98258.78;5003273;28;19936;-59
2023/09/10 08:18:22;;;;;;;;;;;;;;;20.59;67.27;98259.69;5009099;28;19929;-60
2023/09/10 08:20:49;;;;;;;;;;;;;;;20.65;67.12;98260.97;4999591;28;19925;-59
2023/09/10 08:23:17;;;;;;;;;;;;;;;20.75;67.23;98259.53;4996225;28;19965;-61
2023/09/10 08:25:45;;;;;;;;;;;;;;;20.79;66.97;98259.59;5000051;28;19952;-59
2023/09/10 08:28:12;;;;;;;;;;;;;;;20.80;66.22;98256.47;5000392;28;20448;-60
2023/09/10 08:30:40;;;;;;;;;;;;;;;20.86;65.86;98256.94;5007318;28;19976;-59
2023/09/10 08:33:08;;;;;;;;;;;;;;;20.92;65.77;98259.03;5003228;28;19952;-60
2023/09/10 08:35:47;;;;;;;;;;;;;;;20.99;65.93;98263.09;4987186;28;19948;-60
2023/09/10 08:38:15;;;;;;;;;;;;;;;21.02;65.52;98260.34;5003173;28;19959;-59
2023/09/10 08:40:46;;;;;;;;;;;;;;;21.06;65.23;98263.97;5004597;28;19945;-60
2023/09/10 08:43:15;;;;;;;;;;;;;;;21.11;64.74;98260.88;4997515;28;20300;-59
2023/09/10 08:45:43;;;;;;;;;;;;;;;21.14;64.44;98267.63;5001502;28;19972;-59
2023/09/10 08:48:11;;;;;;;;;;;;;;;21.18;64.67;98265.72;5004811;28;20409;-59
2023/09/10 08:50:38;;;;;;;;;;;;;;;21.23;64.78;98256.31;5010172;28;20383;-59
2023/09/10 08:53:07;;;;;;;;;;;;;;;21.27;64.70;98252.44;5011017;28;19987;-59
2023/09/10 08:55:36;;;;;;;;;;;;;;;21.32;64.33;98260.44;5023853;28;19925;-59
2023/09/10 08:58:04;;;;;;;;;;;;;;;21.34;64.08;98258.06;5010730;28;19925;-59
2023/09/10 09:00:31;;;;;;;;;;;;;;;21.36;63.88;98260.47;5004220;28;20397;-60
2023/09/10 09:02:59;;;;;;;;;;;;;;;21.36;64.04;98258.53;5011731;28;19926;-60
2023/09/10 09:05:27;;;;;;;;;;;;;;;21.39;63.89;98256.97;5004213;28;20414;-59
2023/09/10 09:07:55;;;;;;;;;;;;;;;21.39;64.07;98252.22;5010021;28;19929;-59
2023/09/10 09:10:25;;;;;;;;;;;;;;;21.43;63.67;98260.56;5024429;28;19932;-60
2023/09/10 09:12:53;;;;;;;;;;;;;;;21.45;64.09;98258.22;5016572;28;19933;-59
2023/09/10 09:15:21;;;;;;;;;;;;;;;21.50;63.71;98254.34;5024820;28;20293;-61
2023/09/10 09:17:49;;;;;;;;;;;;;;;21.54;63.27;98252.41;5021109;28;19974;-59
2023/09/10 09:20:21;;;;;;;;;;;;;;;21.59;62.72;98249.31;5030223;28;19929;-59
2023/09/10 09:22:49;;;;;;;;;;;;;;;21.62;62.40;98249.34;5026755;28;19940;-59
2023/09/10 09:25:17;;;;;;;;;;;;;;;21.70;63.41;98247.50;5021174;28;19940;-59
2023/09/10 09:27:46;;;;;;;;;;;;;;;21.78;62.80;98246.38;5025827;28;19976;-59
2023/09/10 09:30:14;;;;;;;;;;;;;;;21.81;62.58;98253.94;5029029;28;19925;-59
2023/09/10 09:32:43;;;;;;;;;;;;;;;21.86;62.47;98244.50;5027247;28;19933;-59
2023/09/10 09:35:10;;;;;;;;;;;;;;;21.92;62.83;98249.31;5027746;28;19931;-60
2023/09/10 09:37:38;;;;;;;;;;;;;;;21.98;62.13;98247.81;5024766;28;19999;-59
2023/09/10 09:40:09;;;;;;;;;;;;;;;22.01;62.72;98240.72;5024179;28;19933;-60
2023/09/10 09:42:37;;;;;;;;;;;;;;;22.04;61.74;98244.69;5013296;28;19936;-59
2023/09/10 09:45:06;;;;;;;;;;;;;;;22.09;62.37;98239.63;5020794;28;19925;-59
2023/09/10 09:47:34;;;;;;;;;;;;;;;22.18;61.48;98245.69;5024286;28;19933;-59
2023/09/10 09:50:03;;;;;;;;;;;;;;;22.18;60.95;98248.44;5027299;28;20402;-59
2023/09/10 09:52:31;;;;;;;;;;;;;;;22.21;61.31;98247.69;5023899;28;20330;-60
2023/09/10 09:55:00;;;;;;;;;;;;;;;22.26;61.29;98243.75;5024170;28;19925;-59
2023/09/10 09:57:27;;;;;;;;;;;;;;;22.32;62.10;98242.25;5027934;28;19936;-59
2023/09/10 09:59:55;;;;;;;;;;;;;;;22.38;62.33;98239.94;5024109;28;19982;-60
2023/09/10 10:02:25;;;;;;;;;;;;;;;22.42;60.62;98233.22;5026725;28;19925;-60
2023/09/10 10:04:54;;;;;;;;;;;;;;;22.45;60.45;98234.47;5024924;28;19933;-61
2023/09/10 10:07:26;;;;;;;;;;;;;;;22.52;60.59;98230.94;5019624;28;19931;-59
2023/09/10 10:10:05;;;;;;;;;;;;;;;22.58;60.05;98229.41;5026324;28;19929;-60
2023/09/10 10:12:34;;;;;;;;;;;;;;;22.60;58.91;98227.88;5022689;28;19925;-60
2023/09/10 10:15:01;;;;;;;;;;;;;;;22.69;60.80;98235.84;5027052;28;19937;-60
2023/09/10 10:17:30;;;;;;;;;;;;;;;22.91;59.72;98236.84;5024030;28;19925;-60
2023/09/10 10:19:58;;;;;;;;;;;;;;;22.94;59.58;98225.75;5026470;28;19940;-60
2023/09/10 10:22:26;;;;;;;;;;;;;;;22.94;60.12;98222.22;5025768;28;19929;-61
2023/09/10 10:24:54;;;;;;;;;;;;;;;22.97;60.13;98215.91;5021910;28;19955;-61
2023/09/10 10:27:21;;;;;;;;;;;;;;;22.99;59.58;98214.31;5027817;28;19971;-60
2023/09/10 10:29:49;;;;;;;;;;;;;;;23.04;60.06;98215.94;5026322;28;19941;-60
2023/09/10 10:32:20;;;;;;;;;;;;;;;23.11;59.72;98207.66;5024426;28;20032;-61
2023/09/10 10:34:52;;;;;;;;;;;;;;;23.17;60.07;98206.13;5027003;28;19933;-61
2023/09/10 10:37:23;;;;;;;;;;;;;;;23.26;59.26;98203.00;5021825;28;19925;-58
2023/09/10 10:39:54;;;;;;;;;;;;;;;23.30;59.85;98198.25;5018589;28;20055;-60
2023/09/10 10:42:25;;;;;;;;;;;;;;;23.34;59.51;98199.09;5023020;28;19933;-60
2023/09/10 10:44:53;;;;;;;;;;;;;;;23.33;59.00;98191.97;5024797;28;19933;-60
2023/09/10 10:47:23;;;;;;;;;;;;;;;23.36;58.65;98195.91;5023667;28;20378;-59
2023/09/10 10:49:53;;;;;;;;;;;;;;;23.38;58.91;98193.53;5019019;28;19940;-61
2023/09/10 10:52:21;;;;;;;;;;;;;;;23.43;57.73;98196.72;5025127;28;19928;-61
2023/09/10 10:54:49;;;;;;;;;;;;;;;23.47;57.43;98191.22;5023253;28;19937;-61
2023/09/10 10:57:17;;;;;;;;;;;;;;;23.53;59.92;98189.63;5025937;28;19936;-61
2023/09/10 10:59:45;;;;;;;;;;;;;;;23.53;58.17;98184.88;5022785;28;19929;-60
2023/09/10 11:02:21;;;;;;;;;;;;;;;23.61;58.86;98191.28;5004188;28;19971;-61
2023/09/10 11:04:57;;;;;;;;;;;;;;;23.68;58.46;98187.75;5025854;28;19925;-60
2023/09/10 11:07:29;;;;;;;;;;;;;;;23.73;58.49;98193.72;5022813;28;20382;-59
2023/09/10 11:09:57;;;;;;;;;;;;;;;23.86;57.69;98196.09;5022302;28;19929;-59
2023/09/10 11:12:25;;;;;;;;;;;;;;;23.98;57.40;98193.78;5023741;28;19933;-60
2023/09/10 11:15:10;;;;;;;;;;;;;;;24.07;56.70;98192.59;5026003;28;20411;-60
2023/09/10 11:17:38;;;;;;;;;;;;;;;24.06;57.14;98186.25;5023057;28;19929;-60
2023/09/10 11:20:08;;;;;;;;;;;;;;;24.15;56.34;98186.66;5029018;28;19925;-60
2023/09/10 11:23:00;;;;;;;;;;;;;;;24.25;56.25;98185.09;5020880;28;19932;-60
2023/09/10 11:25:27;;;;;;;;;;;;;;;24.21;56.01;98182.31;5004830;28;19948;-62
2023/09/10 11:27:56;;;;;;;;;;;;;;;24.15;56.31;98180.31;5027969;28;19931;-59
2023/09/10 11:30:24;;;;;;;;;;;;;;;24.15;56.23;98180.31;5018166;28;19932;-60
2023/09/10 11:32:52;;;;;;;;;;;;;;;24.12;55.63;98175.53;5022520;28;19925;-60
2023/09/10 11:35:28;;;;;;;;;;;;;;;24.12;55.47;98175.53;5016163;28;20383;-59
2023/09/10 11:37:56;;;;;;;;;;;;;;;24.15;56.63;98172.00;5016494;28;19925;-61
2023/09/10 11:40:25;;;;;;;;;;;;;;;24.22;55.61;98175.56;5022160;28;19936;-61
2023/09/10 11:42:53;;;;;;;;;;;;;;;24.31;54.89;98170.41;5019389;28;19986;-61
2023/09/10 11:45:22;;;;;;;;;;;;;;;24.35;54.95;98169.63;5028277;28;19933;-60
2023/09/10 11:47:50;;;;;;;;;;;;;;;24.43;54.71;98163.69;5023119;28;20375;-61
2023/09/10 11:50:23;;;;;;;;;;;;;;;24.42;55.09;98167.66;5023169;28;19926;-61
2023/09/10 11:52:52;;;;;;;;;;;;;;;24.40;55.29;98170.06;5020553;28;19948;-61
2023/09/10 11:55:20;;;;;;;;;;;;;;;24.37;55.07;98159.72;5019002;28;19932;-61
2023/09/10 11:57:49;;;;;;;;;;;;;;;24.36;54.54;98163.72;5015706;28;20295;-60
2023/09/10 12:00:17;;;;;;;;;;;;;;;24.32;54.74;98160.09;5020325;28;19932;-61
2023/09/10 12:02:45;;;;;;;;;;;;;;;24.30;55.07;98165.25;5013447;28;19926;-61
2023/09/10 12:05:16;;;;;;;;;;;;;;;24.33;54.66;98163.66;5016699;28;19933;-61
2023/09/10 12:07:44;;;;;;;;;;;;;;;24.33;54.59;98158.91;5023958;28;19932;-62
2023/09/10 12:10:16;;;;;;;;;;;;;;;24.39;54.00;98157.34;5018512;28;20028;-62
2023/09/10 12:12:44;;;;;;;;;;;;;;;24.41;54.83;98149.44;5024756;28;19925;-61
2023/09/10 12:15:11;;;;;;;;;;;;;;;24.63;54.05;98149.41;5018680;28;19925;-61
2023/09/10 12:17:39;;;;;;;;;;;;;;;24.71;53.60;98146.19;5018694;28;19983;-60
2023/09/10 12:20:08;;;;;;;;;;;;;;;24.77;53.41;98146.63;5022114;28;19952;-61
2023/09/10 12:22:35;;;;;;;;;;;;;;;24.92;53.55;98147.34;5020318;28;19926;-60
2023/09/10 12:25:03;;;;;;;;;;;;;;;24.97;53.63;98139.38;5030312;28;19983;-60
2023/09/10 12:27:32;;;;;;;;;;;;;;;24.97;53.17;98135.81;5029321;28;19990;-60
2023/09/10 12:30:00;;;;;;;;;;;;;;;25.05;52.65;98129.84;5028033;28;20390;-61
2023/09/10 12:32:28;;;;;;;;;;;;;;;25.07;52.44;98130.25;5024281;28;20611;-61
2023/09/10 12:34:56;;;;;;;;;;;;;;;25.05;52.92;98131.84;5020857;28;19979;-61
2023/09/10 12:37:23;;;;;;;;;;;;;;;25.04;52.60;98119.16;5018701;28;19990;-61
2023/09/10 12:39:51;;;;;;;;;;;;;;;24.97;52.90;98128.28;5023198;28;19926;-62
2023/09/10 12:42:19;;;;;;;;;;;;;;;24.88;53.23;98127.13;5027141;28;19929;-62
2023/09/10 12:44:48;;;;;;;;;;;;;;;24.84;53.58;98121.59;5024942;28;19933;-62
2023/09/10 12:47:16;;;;;;;;;;;;;;;24.83;53.59;98122.78;5023806;28;19925;-61
2023/09/10 12:49:44;;;;;;;;;;;;;;;24.83;53.65;98120.00;5021116;28;19930;-62
2023/09/10 12:52:12;;;;;;;;;;;;;;;24.81;53.49;98122.38;5021835;28;19925;-61
2023/09/10 12:54:40;;;;;;;;;;;;;;;25.01;52.23;98117.94;5026653;28;19933;-62